sensor_id;sensor_type;location;lat;lon;timestamp;pressure;altitude;pressure_sealevel;temperature;humidity
3668;BME280;24099;47.102;15.440;2022-08-19T00:01:35;96448.03;;;16.61;100.00
3668;BME280;24099;47.102;15.440;2022-08-19T00:04:07;96455.50;;;16.47;100.00
3668;BME280;24099;47.102;15.440;2022-08-19T00:06:37;96456.31;;;16.48;100.00
3668;BME280;24099;47.102;15.440;2022-08-19T00:09:10;96450.75;;;16.49;100.00
3668;BME280;24099;47.102;15.440;2022-08-19T00:11:38;96454.88;;;16.57;100.00
3668;BME280;24099;47.102;15.440;2022-08-19T00:14:08;96456.25;;;16.31;100.00
3668;BME280;24099;47.102;15.440;2022-08-19T00:16:38;96449.72;;;16.50;100.00
3668;BME280;24099;47.102;15.440;2022-08-19T00:19:07;96472.56;;;16.63;100.00
3668;BME280;24099;47.102;15.440;2022-08-19T00:21:34;96472.69;;;16.57;100.00
3668;BME280;24099;47.102;15.440;2022-08-19T00:24:06;96474.91;;;16.48;100.00
3668;BME280;24099;47.102;15.440;2022-08-19T00:26:34;96475.69;;;16.48;100.00
3668;BME280;24099;47.102;15.440;2022-08-19T00:29:04;96477.56;;;16.48;100.00
3668;BME280;24099;47.102;15.440;2022-08-19T00:31:32;96467.78;;;16.25;100.00
3668;BME280;24099;47.102;15.440;2022-08-19T00:34:00;96456.25;;;16.31;100.00
3668;BME280;24099;47.102;15.440;2022-08-19T00:36:27;96460.81;;;16.47;100.00
3668;BME280;24099;47.102;15.440;2022-08-19T00:38:55;96460.75;;;16.31;100.00
3668;BME280;24099;47.102;15.440;2022-08-19T00:41:25;96462.03;;;16.28;100.00
3668;BME280;24099;47.102;15.440;2022-08-19T00:44:05;96458.78;;;16.26;100.00
3668;BME280;24099;47.102;15.440;2022-08-19T00:46:37;96473.84;;;16.49;100.00
3668;BME280;24099;47.102;15.440;2022-08-19T00:49:10;96478.53;;;16.59;100.00
3668;BME280;24099;47.102;15.440;2022-08-19T00:51:41;96493.50;;;16.48;100.00
3668;BME280;24099;47.102;15.440;2022-08-19T00:54:09;96491.06;;;16.46;100.00
3668;BME280;24099;47.102;15.440;2022-08-19T00:56:39;96495.63;;;16.34;100.00
3668;BME280;24099;47.102;15.440;2022-08-19T00:59:07;96483.47;;;16.38;100.00
3668;BME280;24099;47.102;15.440;2022-08-19T01:01:36;96471.72;;;16.34;100.00
3668;BME280;24099;47.102;15.440;2022-08-19T01:04:04;96483.22;;;16.51;100.00
3668;BME280;24099;47.102;15.440;2022-08-19T01:06:32;96500.75;;;16.52;100.00
3668;BME280;24099;47.102;15.440;2022-08-19T01:09:00;96502.50;;;16.47;100.00
3668;BME280;24099;47.102;15.440;2022-08-19T01:11:28;96507.13;;;16.51;100.00
3668;BME280;24099;47.102;15.440;2022-08-19T01:13:59;96525.47;;;16.65;100.00
3668;BME280;24099;47.102;15.440;2022-08-19T01:16:28;96533.44;;;16.53;100.00
3668;BME280;24099;47.102;15.440;2022-08-19T01:19:00;96537.03;;;16.47;100.00
3668;BME280;24099;47.102;15.440;2022-08-19T01:21:32;96526.75;;;16.39;100.00
3668;BME280;24099;47.102;15.440;2022-08-19T01:24:03;96515.91;;;16.40;100.00
3668;BME280;24099;47.102;15.440;2022-08-19T01:26:31;96510.81;;;16.50;100.00
3668;BME280;24099;47.102;15.440;2022-08-19T01:28:59;96507.81;;;16.47;100.00
3668;BME280;24099;47.102;15.440;2022-08-19T01:31:29;96506.06;;;16.52;100.00
3668;BME280;24099;47.102;15.440;2022-08-19T01:33:58;96501.91;;;16.57;100.00
3668;BME280;24099;47.102;15.440;2022-08-19T01:36:30;96497.84;;;16.66;100.00
3668;BME280;24099;47.102;15.440;2022-08-19T01:38:59;96485.94;;;16.68;100.00
3668;BME280;24099;47.102;15.440;2022-08-19T01:41:28;96475.56;;;16.55;100.00
3668;BME280;24099;47.102;15.440;2022-08-19T01:43:55;96471.19;;;16.49;100.00
3668;BME280;24099;47.102;15.440;2022-08-19T01:46:23;96450.19;;;16.47;100.00
3668;BME280;24099;47.102;15.440;2022-08-19T01:48:50;96435.56;;;16.62;100.00
3668;BME280;24099;47.102;15.440;2022-08-19T01:51:18;96422.00;;;16.46;100.00
3668;BME280;24099;47.102;15.440;2022-08-19T01:53:48;96419.91;;;16.48;100.00
3668;BME280;24099;47.102;15.440;2022-08-19T01:56:16;96415.19;;;16.50;100.00
3668;BME280;24099;47.102;15.440;2022-08-19T01:58:50;96398.09;;;16.46;100.00
3668;BME280;24099;47.102;15.440;2022-08-19T02:01:19;96384.94;;;16.40;100.00
3668;BME280;24099;47.102;15.440;2022-08-19T02:03:47;96398.97;;;16.64;100.00
3668;BME280;24099;47.102;15.440;2022-08-19T02:06:14;96404.94;;;16.71;100.00
3668;BME280;24099;47.102;15.440;2022-08-19T02:08:43;96414.31;;;16.33;100.00
3668;BME280;24099;47.102;15.440;2022-08-19T02:11:20;96423.75;;;16.41;100.00
3668;BME280;24099;47.102;15.440;2022-08-19T02:13:49;96422.94;;;16.40;100.00
3668;BME280;24099;47.102;15.440;2022-08-19T02:16:18;96431.75;;;16.29;100.00
3668;BME280;24099;47.102;15.440;2022-08-19T02:18:46;96418.25;;;16.31;100.00
3668;BME280;24099;47.102;15.440;2022-08-19T02:21:15;96421.88;;;16.13;100.00
3668;BME280;24099;47.102;15.440;2022-08-19T02:23:42;96425.69;;;16.17;100.00
3668;BME280;24099;47.102;15.440;2022-08-19T02:26:11;96416.44;;;16.19;100.00
3668;BME280;24099;47.102;15.440;2022-08-19T02:28:40;96398.66;;;16.20;100.00
3668;BME280;24099;47.102;15.440;2022-08-19T02:31:12;96393.31;;;16.32;100.00
3668;BME280;24099;47.102;15.440;2022-08-19T02:33:40;96387.75;;;16.33;100.00
3668;BME280;24099;47.102;15.440;2022-08-19T02:36:09;96394.13;;;16.32;100.00
3668;BME280;24099;47.102;15.440;2022-08-19T02:38:38;96389.22;;;16.41;100.00
3668;BME280;24099;47.102;15.440;2022-08-19T02:41:12;96391.94;;;16.29;100.00
3668;BME280;24099;47.102;15.440;2022-08-19T02:43:40;96395.72;;;16.33;100.00
3668;BME280;24099;47.102;15.440;2022-08-19T02:46:18;96403.09;;;16.60;100.00
3668;BME280;24099;47.102;15.440;2022-08-19T02:48:48;96399.59;;;16.42;100.00
3668;BME280;24099;47.102;15.440;2022-08-19T02:51:20;96396.94;;;16.42;100.00
3668;BME280;24099;47.102;15.440;2022-08-19T02:53:48;96394.59;;;16.58;100.00
3668;BME280;24099;47.102;15.440;2022-08-19T02:56:15;96388.84;;;16.49;100.00
3668;BME280;24099;47.102;15.440;2022-08-19T02:58:44;96403.03;;;16.54;100.00
3668;BME280;24099;47.102;15.440;2022-08-19T03:01:20;96410.91;;;16.49;100.00
3668;BME280;24099;47.102;15.440;2022-08-19T03:03:48;96406.16;;;16.51;100.00
3668;BME280;24099;47.102;15.440;2022-08-19T03:06:16;96403.50;;;16.51;100.00
3668;BME280;24099;47.102;15.440;2022-08-19T03:08:46;96405.34;;;16.51;100.00
3668;BME280;24099;47.102;15.440;2022-08-19T03:11:15;96404.88;;;16.54;100.00
3668;BME280;24099;47.102;15.440;2022-08-19T03:13:43;96403.03;;;16.54;100.00
3668;BME280;24099;47.102;15.440;2022-08-19T03:16:12;96391.75;;;16.47;100.00
3668;BME280;24099;47.102;15.440;2022-08-19T03:18:41;96408.34;;;16.54;100.00
3668;BME280;24099;47.102;15.440;2022-08-19T03:21:09;96412.31;;;16.40;100.00
3668;BME280;24099;47.102;15.440;2022-08-19T03:23:36;96411.38;;;16.46;100.00
3668;BME280;24099;47.102;15.440;2022-08-19T03:26:06;96415.50;;;16.54;100.00
3668;BME280;24099;47.102;15.440;2022-08-19T03:28:33;96419.09;;;16.48;100.00
3668;BME280;24099;47.102;15.440;2022-08-19T03:31:04;96401.69;;;16.40;100.00
3668;BME280;24099;47.102;15.440;2022-08-19T03:33:33;96405.50;;;16.44;100.00
3668;BME280;24099;47.102;15.440;2022-08-19T03:36:06;96410.03;;;16.61;100.00
3668;BME280;24099;47.102;15.440;2022-08-19T03:38:35;96415.09;;;16.74;100.00
3668;BME280;24099;47.102;15.440;2022-08-19T03:41:05;96431.69;;;16.81;100.00
3668;BME280;24099;47.102;15.440;2022-08-19T03:43:35;96446.81;;;16.80;100.00
3668;BME280;24099;47.102;15.440;2022-08-19T03:46:07;96467.53;;;16.78;100.00
3668;BME280;24099;47.102;15.440;2022-08-19T03:48:37;96477.69;;;16.81;100.00
3668;BME280;24099;47.102;15.440;2022-08-19T03:51:07;96505.25;;;16.92;100.00
3668;BME280;24099;47.102;15.440;2022-08-19T03:53:35;96522.03;;;16.93;100.00
3668;BME280;24099;47.102;15.440;2022-08-19T03:56:03;96536.13;;;16.93;100.00
3668;BME280;24099;47.102;15.440;2022-08-19T03:58:31;96558.44;;;16.92;100.00
3668;BME280;24099;47.102;15.440;2022-08-19T04:00:58;96573.44;;;16.98;100.00
3668;BME280;24099;47.102;15.440;2022-08-19T04:03:26;96608.66;;;17.05;100.00
3668;BME280;24099;47.102;15.440;2022-08-19T04:05:54;96595.56;;;17.61;100.00
3668;BME280;24099;47.102;15.440;2022-08-19T04:08:22;96554.84;;;18.27;100.00
3668;BME280;24099;47.102;15.440;2022-08-19T04:10:50;96545.91;;;18.00;100.00
3668;BME280;24099;47.102;15.440;2022-08-19T04:13:20;96558.34;;;18.11;100.00
3668;BME280;24099;47.102;15.440;2022-08-19T04:15:47;96557.13;;;18.02;100.00
3668;BME280;24099;47.102;15.440;2022-08-19T04:18:15;96563.09;;;18.09;100.00
3668;BME280;24099;47.102;15.440;2022-08-19T04:20:45;96545.59;;;17.96;100.00
3668;BME280;24099;47.102;15.440;2022-08-19T04:23:14;96540.75;;;18.10;100.00
3668;BME280;24099;47.102;15.440;2022-08-19T04:25:44;96548.94;;;18.25;100.00
3668;BME280;24099;47.102;15.440;2022-08-19T04:28:13;96538.22;;;18.20;100.00
3668;BME280;24099;47.102;15.440;2022-08-19T04:30:43;96528.16;;;18.05;100.00
3668;BME280;24099;47.102;15.440;2022-08-19T04:33:12;96520.84;;;17.96;100.00
3668;BME280;24099;47.102;15.440;2022-08-19T04:35:45;96528.19;;;17.88;100.00
3668;BME280;24099;47.102;15.440;2022-08-19T04:38:14;96500.66;;;17.83;100.00
3668;BME280;24099;47.102;15.440;2022-08-19T04:40:47;96502.31;;;18.06;100.00
3668;BME280;24099;47.102;15.440;2022-08-19T04:43:33;96488.00;;;18.50;100.00
3668;BME280;24099;47.102;15.440;2022-08-19T04:46:05;96478.53;;;18.38;100.00
3668;BME280;24099;47.102;15.440;2022-08-19T04:48:33;96481.53;;;18.24;100.00
3668;BME280;24099;47.102;15.440;2022-08-19T04:51:00;96483.28;;;18.14;100.00
3668;BME280;24099;47.102;15.440;2022-08-19T04:53:33;96475.03;;;18.15;100.00
3668;BME280;24099;47.102;15.440;2022-08-19T04:56:09;96475.59;;;18.17;100.00
3668;BME280;24099;47.102;15.440;2022-08-19T04:58:38;96458.97;;;18.10;100.00
3668;BME280;24099;47.102;15.440;2022-08-19T05:01:09;96464.13;;;18.17;100.00
3668;BME280;24099;47.102;15.440;2022-08-19T05:03:38;96462.44;;;18.11;100.00
3668;BME280;24099;47.102;15.440;2022-08-19T05:06:10;96458.75;;;18.12;100.00
3668;BME280;24099;47.102;15.440;2022-08-19T05:08:39;96465.19;;;18.16;100.00
3668;BME280;24099;47.102;15.440;2022-08-19T05:11:13;96471.69;;;18.25;100.00
3668;BME280;24099;47.102;15.440;2022-08-19T05:13:40;96469.34;;;18.29;100.00
3668;BME280;24099;47.102;15.440;2022-08-19T05:16:09;96474.00;;;18.38;100.00
3668;BME280;24099;47.102;15.440;2022-08-19T05:18:37;96499.38;;;18.46;100.00
3668;BME280;24099;47.102;15.440;2022-08-19T05:21:23;96506.47;;;18.57;100.00
3668;BME280;24099;47.102;15.440;2022-08-19T05:24:08;96512.44;;;18.64;100.00
3668;BME280;24099;47.102;15.440;2022-08-19T05:26:38;96509.44;;;18.61;100.00
3668;BME280;24099;47.102;15.440;2022-08-19T05:29:06;96511.53;;;18.58;100.00
3668;BME280;24099;47.102;15.440;2022-08-19T05:31:35;96502.56;;;18.65;100.00
3668;BME280;24099;47.102;15.440;2022-08-19T05:34:03;96510.13;;;18.73;100.00
3668;BME280;24099;47.102;15.440;2022-08-19T05:36:36;96510.19;;;18.78;100.00
3668;BME280;24099;47.102;15.440;2022-08-19T05:39:05;96506.16;;;18.75;100.00
3668;BME280;24099;47.102;15.440;2022-08-19T05:41:33;96504.97;;;18.88;100.00
3668;BME280;24099;47.102;15.440;2022-08-19T05:44:05;96514.16;;;18.97;100.00
3668;BME280;24099;47.102;15.440;2022-08-19T05:46:35;96515.03;;;19.08;100.00
3668;BME280;24099;47.102;15.440;2022-08-19T05:49:04;96526.56;;;19.13;100.00
3668;BME280;24099;47.102;15.440;2022-08-19T05:51:33;96520.56;;;19.28;100.00
3668;BME280;24099;47.102;15.440;2022-08-19T05:54:01;96523.06;;;19.40;100.00
3668;BME280;24099;47.102;15.440;2022-08-19T05:56:28;96525.91;;;19.55;100.00
3668;BME280;24099;47.102;15.440;2022-08-19T05:58:57;96535.88;;;19.65;100.00
3668;BME280;24099;47.102;15.440;2022-08-19T06:01:27;96556.47;;;19.69;100.00
3668;BME280;24099;47.102;15.440;2022-08-19T06:03:54;96546.00;;;19.94;100.00
3668;BME280;24099;47.102;15.440;2022-08-19T06:06:22;96548.00;;;20.14;100.00
3668;BME280;24099;47.102;15.440;2022-08-19T06:08:50;96551.13;;;20.06;100.00
3668;BME280;24099;47.102;15.440;2022-08-19T06:11:22;96557.50;;;20.00;100.00
3668;BME280;24099;47.102;15.440;2022-08-19T06:13:52;96560.59;;;20.24;100.00
3668;BME280;24099;47.102;15.440;2022-08-19T06:16:20;96566.53;;;20.31;100.00
3668;BME280;24099;47.102;15.440;2022-08-19T06:18:51;96560.63;;;20.29;100.00
3668;BME280;24099;47.102;15.440;2022-08-19T06:21:20;96552.19;;;20.42;100.00
3668;BME280;24099;47.102;15.440;2022-08-19T06:23:47;96545.44;;;20.35;100.00
3668;BME280;24099;47.102;15.440;2022-08-19T06:26:18;96537.75;;;20.43;100.00
3668;BME280;24099;47.102;15.440;2022-08-19T06:28:48;96534.81;;;20.45;100.00
3668;BME280;24099;47.102;15.440;2022-08-19T06:31:18;96533.81;;;20.56;100.00
3668;BME280;24099;47.102;15.440;2022-08-19T06:33:47;96519.13;;;20.63;100.00
3668;BME280;24099;47.102;15.440;2022-08-19T06:36:21;96522.41;;;20.76;100.00
3668;BME280;24099;47.102;15.440;2022-08-19T06:38:53;96522.41;;;20.86;100.00
3668;BME280;24099;47.102;15.440;2022-08-19T06:41:24;96516.03;;;20.97;100.00
3668;BME280;24099;47.102;15.440;2022-08-19T06:43:52;96519.28;;;21.14;100.00
3668;BME280;24099;47.102;15.440;2022-08-19T06:46:20;96530.03;;;21.40;100.00
3668;BME280;24099;47.102;15.440;2022-08-19T06:48:48;96528.44;;;21.44;100.00
3668;BME280;24099;47.102;15.440;2022-08-19T06:51:22;96533.03;;;21.53;100.00
3668;BME280;24099;47.102;15.440;2022-08-19T06:53:52;96541.59;;;21.60;100.00
3668;BME280;24099;47.102;15.440;2022-08-19T06:56:24;96537.28;;;21.59;100.00
3668;BME280;24099;47.102;15.440;2022-08-19T06:58:56;96533.00;;;21.63;100.00
3668;BME280;24099;47.102;15.440;2022-08-19T07:01:24;96543.47;;;21.65;100.00
3668;BME280;24099;47.102;15.440;2022-08-19T07:03:52;96561.16;;;21.81;100.00
3668;BME280;24099;47.102;15.440;2022-08-19T07:06:20;96562.75;;;21.82;100.00
3668;BME280;24099;47.102;15.440;2022-08-19T07:08:48;96572.16;;;21.95;100.00
3668;BME280;24099;47.102;15.440;2022-08-19T07:11:17;96593.06;;;21.78;100.00
3668;BME280;24099;47.102;15.440;2022-08-19T07:13:46;96604.28;;;21.75;100.00
3668;BME280;24099;47.102;15.440;2022-08-19T07:16:17;96604.00;;;21.66;100.00
3668;BME280;24099;47.102;15.440;2022-08-19T07:18:46;96600.28;;;21.72;100.00
3668;BME280;24099;47.102;15.440;2022-08-19T07:21:17;96620.06;;;21.66;100.00
3668;BME280;24099;47.102;15.440;2022-08-19T07:23:47;96614.75;;;21.76;100.00
3668;BME280;24099;47.102;15.440;2022-08-19T07:26:22;96620.91;;;21.92;100.00
3668;BME280;24099;47.102;15.440;2022-08-19T07:28:50;96622.78;;;21.76;100.00
3668;BME280;24099;47.102;15.440;2022-08-19T07:31:21;96614.22;;;21.74;100.00
3668;BME280;24099;47.102;15.440;2022-08-19T07:33:52;96614.47;;;21.78;100.00
3668;BME280;24099;47.102;15.440;2022-08-19T07:36:24;96612.31;;;21.70;100.00
3668;BME280;24099;47.102;15.440;2022-08-19T07:38:53;96612.84;;;21.56;100.00
3668;BME280;24099;47.102;15.440;2022-08-19T07:41:25;96612.81;;;21.51;100.00
3668;BME280;24099;47.102;15.440;2022-08-19T07:43:55;96593.50;;;21.34;100.00
3668;BME280;24099;47.102;15.440;2022-08-19T07:46:22;96605.56;;;21.37;100.00
3668;BME280;24099;47.102;15.440;2022-08-19T07:48:51;96618.31;;;21.19;100.00
3668;BME280;24099;47.102;15.440;2022-08-19T07:51:21;96631.47;;;21.21;100.00
3668;BME280;24099;47.102;15.440;2022-08-19T07:53:49;96631.41;;;21.11;100.00
3668;BME280;24099;47.102;15.440;2022-08-19T07:56:20;96632.50;;;21.15;100.00
3668;BME280;24099;47.102;15.440;2022-08-19T07:58:50;96627.81;;;20.85;100.00
3668;BME280;24099;47.102;15.440;2022-08-19T08:01:21;96639.59;;;20.89;100.00
3668;BME280;24099;47.102;15.440;2022-08-19T08:03:50;96628.13;;;20.46;100.00
3668;BME280;24099;47.102;15.440;2022-08-19T08:06:35;96631.34;;;20.48;100.00
3668;BME280;24099;47.102;15.440;2022-08-19T08:09:25;96639.09;;;20.45;100.00
3668;BME280;24099;47.102;15.440;2022-08-19T08:11:59;96642.28;;;20.10;100.00
3668;BME280;24099;47.102;15.440;2022-08-19T08:14:30;96628.69;;;19.84;100.00
3668;BME280;24099;47.102;15.440;2022-08-19T08:16:59;96620.34;;;19.76;100.00
3668;BME280;24099;47.102;15.440;2022-08-19T08:19:28;96620.13;;;19.82;100.00
3668;BME280;24099;47.102;15.440;2022-08-19T08:21:58;96606.69;;;19.72;100.00
3668;BME280;24099;47.102;15.440;2022-08-19T08:24:30;96568.13;;;19.58;100.00
3668;BME280;24099;47.102;15.440;2022-08-19T08:27:00;96551.94;;;19.70;100.00
3668;BME280;24099;47.102;15.440;2022-08-19T08:29:29;96556.19;;;20.03;100.00
3668;BME280;24099;47.102;15.440;2022-08-19T08:31:57;96531.53;;;19.90;100.00
3668;BME280;24099;47.102;15.440;2022-08-19T08:34:25;96544.94;;;19.95;100.00
3668;BME280;24099;47.102;15.440;2022-08-19T08:36:52;96550.22;;;19.90;100.00
3668;BME280;24099;47.102;15.440;2022-08-19T08:39:21;96534.75;;;19.60;100.00
3668;BME280;24099;47.102;15.440;2022-08-19T08:41:58;96559.91;;;19.97;100.00
3668;BME280;24099;47.102;15.440;2022-08-19T08:44:39;96568.31;;;19.83;100.00
3668;BME280;24099;47.102;15.440;2022-08-19T08:47:17;96580.56;;;19.79;100.00
3668;BME280;24099;47.102;15.440;2022-08-19T08:49:51;96540.91;;;19.93;100.00
3668;BME280;24099;47.102;15.440;2022-08-19T08:52:23;96551.94;;;20.07;100.00
3668;BME280;24099;47.102;15.440;2022-08-19T08:54:55;96528.84;;;19.90;100.00
3668;BME280;24099;47.102;15.440;2022-08-19T08:57:34;96551.47;;;20.15;100.00
3668;BME280;24099;47.102;15.440;2022-08-19T09:00:08;96540.28;;;20.23;100.00
3668;BME280;24099;47.102;15.440;2022-08-19T09:02:37;96544.09;;;20.32;100.00
3668;BME280;24099;47.102;15.440;2022-08-19T09:05:06;96554.03;;;20.42;100.00
3668;BME280;24099;47.102;15.440;2022-08-19T09:07:45;96545.25;;;20.46;100.00
3668;BME280;24099;47.102;15.440;2022-08-19T09:10:21;96547.00;;;20.30;100.00
3668;BME280;24099;47.102;15.440;2022-08-19T09:13:02;96565.28;;;20.44;100.00
3668;BME280;24099;47.102;15.440;2022-08-19T09:15:42;96574.97;;;20.50;100.00
3668;BME280;24099;47.102;15.440;2022-08-19T09:18:11;96591.31;;;20.63;100.00
3668;BME280;24099;47.102;15.440;2022-08-19T09:20:39;96590.59;;;20.73;100.00
3668;BME280;24099;47.102;15.440;2022-08-19T09:23:06;96571.31;;;20.71;100.00
3668;BME280;24099;47.102;15.440;2022-08-19T09:25:35;96583.59;;;20.67;100.00
3668;BME280;24099;47.102;15.440;2022-08-19T09:28:03;96576.06;;;20.59;100.00
3668;BME280;24099;47.102;15.440;2022-08-19T09:30:41;96545.25;;;20.46;100.00
3668;BME280;24099;47.102;15.440;2022-08-19T09:33:09;96522.84;;;20.52;100.00
3668;BME280;24099;47.102;15.440;2022-08-19T09:35:36;96512.97;;;20.58;100.00
3668;BME280;24099;47.102;15.440;2022-08-19T09:38:04;96516.75;;;20.67;100.00
3668;BME280;24099;47.102;15.440;2022-08-19T09:40:31;96520.28;;;20.88;100.00
3668;BME280;24099;47.102;15.440;2022-08-19T09:42:59;96539.41;;;21.27;100.00
3668;BME280;24099;47.102;15.440;2022-08-19T09:45:29;96553.09;;;21.36;100.00
3668;BME280;24099;47.102;15.440;2022-08-19T09:47:58;96558.22;;;21.57;100.00
3668;BME280;24099;47.102;15.440;2022-08-19T09:50:26;96539.44;;;21.52;100.00
3668;BME280;24099;47.102;15.440;2022-08-19T09:52:53;96535.94;;;21.42;100.00
3668;BME280;24099;47.102;15.440;2022-08-19T09:55:21;96540.78;;;21.50;100.00
3668;BME280;24099;47.102;15.440;2022-08-19T09:57:48;96527.66;;;21.69;100.00
3668;BME280;24099;47.102;15.440;2022-08-19T10:00:16;96504.34;;;21.79;100.00
3668;BME280;24099;47.102;15.440;2022-08-19T10:02:43;96537.31;;;21.90;100.00
3668;BME280;24099;47.102;15.440;2022-08-19T10:05:12;96564.09;;;21.90;100.00
3668;BME280;24099;47.102;15.440;2022-08-19T10:07:57;96565.19;;;22.04;100.00
3668;BME280;24099;47.102;15.440;2022-08-19T10:10:27;96566.25;;;21.98;100.00
3668;BME280;24099;47.102;15.440;2022-08-19T10:12:55;96575.88;;;21.89;100.00
3668;BME280;24099;47.102;15.440;2022-08-19T10:15:22;96578.84;;;21.92;100.00
3668;BME280;24099;47.102;15.440;2022-08-19T10:17:50;96573.50;;;21.77;100.00
3668;BME280;24099;47.102;15.440;2022-08-19T10:20:19;96570.00;;;21.97;100.00
3668;BME280;24099;47.102;15.440;2022-08-19T10:22:47;96578.84;;;22.03;100.00
3668;BME280;24099;47.102;15.440;2022-08-19T10:25:15;96575.59;;;21.80;100.00
3668;BME280;24099;47.102;15.440;2022-08-19T10:27:42;96560.09;;;21.92;100.00
3668;BME280;24099;47.102;15.440;2022-08-19T10:30:12;96552.03;;;21.92;100.00
3668;BME280;24099;47.102;15.440;2022-08-19T10:32:39;96566.25;;;22.08;100.00
3668;BME280;24099;47.102;15.440;2022-08-19T10:35:07;96561.72;;;22.14;100.00
3668;BME280;24099;47.102;15.440;2022-08-19T10:37:37;96553.13;;;22.17;100.00
3668;BME280;24099;47.102;15.440;2022-08-19T10:40:06;96560.38;;;22.16;100.00
3668;BME280;24099;47.102;15.440;2022-08-19T10:42:36;96583.13;;;22.24;100.00
3668;BME280;24099;47.102;15.440;2022-08-19T10:45:05;96590.63;;;22.27;100.00
3668;BME280;24099;47.102;15.440;2022-08-19T10:47:36;96590.63;;;22.37;100.00
3668;BME280;24099;47.102;15.440;2022-08-19T10:50:04;96590.59;;;22.52;100.00
3668;BME280;24099;47.102;15.440;2022-08-19T10:52:50;96595.13;;;22.62;100.00
3668;BME280;24099;47.102;15.440;2022-08-19T10:55:20;96590.28;;;22.59;100.00
3668;BME280;24099;47.102;15.440;2022-08-19T10:58:11;96571.19;;;22.86;100.00
3668;BME280;24099;47.102;15.440;2022-08-19T11:00:39;96573.06;;;22.90;100.00
3668;BME280;24099;47.102;15.440;2022-08-19T11:03:07;96566.91;;;22.85;100.00
3668;BME280;24099;47.102;15.440;2022-08-19T11:05:36;96561.25;;;22.91;100.00
3668;BME280;24099;47.102;15.440;2022-08-19T11:08:06;96552.59;;;22.99;100.00
3668;BME280;24099;47.102;15.440;2022-08-19T11:10:40;96552.28;;;23.16;100.00
3668;BME280;24099;47.102;15.440;2022-08-19T11:13:08;96550.34;;;23.22;100.00
3668;BME280;24099;47.102;15.440;2022-08-19T11:15:35;96559.41;;;23.36;100.00
3668;BME280;24099;47.102;15.440;2022-08-19T11:18:03;96554.22;;;23.45;100.00
3668;BME280;24099;47.102;15.440;2022-08-19T11:20:31;96565.41;;;23.62;100.00
3668;BME280;24099;47.102;15.440;2022-08-19T11:22:59;96594.28;;;23.85;100.00
3668;BME280;24099;47.102;15.440;2022-08-19T11:25:28;96615.00;;;23.80;100.00
3668;BME280;24099;47.102;15.440;2022-08-19T11:27:55;96618.16;;;23.92;100.00
3668;BME280;24099;47.102;15.440;2022-08-19T11:30:23;96617.59;;;23.95;100.00
3668;BME280;24099;47.102;15.440;2022-08-19T11:32:50;96610.34;;;23.95;100.00
3668;BME280;24099;47.102;15.440;2022-08-19T11:35:18;96601.06;;;23.78;100.00
3668;BME280;24099;47.102;15.440;2022-08-19T11:37:46;96583.28;;;23.82;100.00
3668;BME280;24099;47.102;15.440;2022-08-19T11:40:13;96581.69;;;23.81;100.00
3668;BME280;24099;47.102;15.440;2022-08-19T11:42:42;96589.56;;;23.72;100.00
3668;BME280;24099;47.102;15.440;2022-08-19T11:45:23;96588.75;;;23.72;100.00
3668;BME280;24099;47.102;15.440;2022-08-19T11:47:51;96587.63;;;23.78;100.00
3668;BME280;24099;47.102;15.440;2022-08-19T11:50:19;96583.53;;;23.85;100.00
3668;BME280;24099;47.102;15.440;2022-08-19T11:52:47;96591.47;;;24.00;100.00
3668;BME280;24099;47.102;15.440;2022-08-19T11:55:16;96587.22;;;24.28;100.00
3668;BME280;24099;47.102;15.440;2022-08-19T11:57:45;96582.59;;;24.34;100.00
3668;BME280;24099;47.102;15.440;2022-08-19T12:00:14;96573.09;;;24.42;100.00
3668;BME280;24099;47.102;15.440;2022-08-19T12:02:41;96580.28;;;24.51;100.00
3668;BME280;24099;47.102;15.440;2022-08-19T12:05:09;96571.56;;;24.59;100.00
3668;BME280;24099;47.102;15.440;2022-08-19T12:07:37;96561.97;;;24.53;100.00
3668;BME280;24099;47.102;15.440;2022-08-19T12:10:05;96552.06;;;24.72;100.00
3668;BME280;24099;47.102;15.440;2022-08-19T12:12:32;96553.47;;;24.89;100.00
3668;BME280;24099;47.102;15.440;2022-08-19T12:15:02;96564.00;;;25.09;100.00
3668;BME280;24099;47.102;15.440;2022-08-19T12:17:29;96559.53;;;24.99;100.00
3668;BME280;24099;47.102;15.440;2022-08-19T12:19:57;96551.94;;;25.25;100.00
3668;BME280;24099;47.102;15.440;2022-08-19T12:22:24;96555.38;;;25.31;100.00
3668;BME280;24099;47.102;15.440;2022-08-19T12:24:52;96538.34;;;25.17;100.00
3668;BME280;24099;47.102;15.440;2022-08-19T12:27:21;96547.13;;;25.22;100.00
3668;BME280;24099;47.102;15.440;2022-08-19T12:29:48;96540.34;;;25.44;100.00
3668;BME280;24099;47.102;15.440;2022-08-19T12:32:17;96526.81;;;25.67;100.00
3668;BME280;24099;47.102;15.440;2022-08-19T12:34:44;96523.47;;;25.76;100.00
3668;BME280;24099;47.102;15.440;2022-08-19T12:37:13;96520.72;;;25.94;100.00
3668;BME280;24099;47.102;15.440;2022-08-19T12:39:42;96527.75;;;26.23;100.00
3668;BME280;24099;47.102;15.440;2022-08-19T12:42:11;96523.81;;;26.01;100.00
3668;BME280;24099;47.102;15.440;2022-08-19T12:44:42;96535.16;;;26.17;100.00
3668;BME280;24099;47.102;15.440;2022-08-19T12:47:12;96521.63;;;26.36;100.00
3668;BME280;24099;47.102;15.440;2022-08-19T12:49:42;96531.31;;;26.51;96.14
3668;BME280;24099;47.102;15.440;2022-08-19T12:52:10;96539.81;;;26.85;96.75
3668;BME280;24099;47.102;15.440;2022-08-19T12:54:41;96540.81;;;27.03;87.98
3668;BME280;24099;47.102;15.440;2022-08-19T12:57:10;96537.41;;;26.84;88.99
3668;BME280;24099;47.102;15.440;2022-08-19T12:59:39;96546.00;;;26.86;84.54
3668;BME280;24099;47.102;15.440;2022-08-19T13:02:07;96548.41;;;27.01;91.71
3668;BME280;24099;47.102;15.440;2022-08-19T13:04:35;96544.81;;;26.92;83.92